La Quiaca, Argentina
Current Conditions -  °F | °C
As of 8:00 AM on Thursday 23 Oct 2014 (Local Time) from SLTJ Reporting Station
Scattered Clouds Scattered Clouds  
Wind Chill: 61°   Ceiling: Unl
Heat Index: 61°   Visibility: 5mi
Dew Point: 59°   Wind: 0mph
Humidity: 94%   Direction: NA
Pressure: 30.18"   Gusts: NA
Location:  22.11°S, 65.59°W
Report Text: SLTJ 231100Z 00000KT 8000 FEW012 SCT030 SCT70 16/15 Q1022
Loading
Personal Weather Stations






























Interactive Weather Map
Tropical Storm Tracking
New forecast layout! Learn more

10-Day Weather Forecast

Advertisements
Track Severe Weather on mobile